Time;durP1;ratioP1;P1;durP2;ratioP2;P2;SDS_P1;SDS_P2;PMS_P1;PMS_P2;Temp;Humidity;BMP_temperature;BMP_pressure;BME280_temperature;BME280_humidity;BME280_pressure;Samples;Min_cycle;Max_cycle;Signal;HPM_P1;HPM_P2
2021/09/02 00:01:17;;;;;;;14.48;7.05;;;;;;;;;;6180027;23;20179;-91
2021/09/02 00:04:24;;;;;;;15.20;7.70;;;;;;;;;;6180977;23;20187;-92
2021/09/02 00:07:29;;;;;;;13.80;6.65;;;;;;;;;;6182054;23;20208;-91
2021/09/02 00:10:35;;;;;;;13.90;7.22;;;;;;;;;;6181662;23;20239;-89
2021/09/02 00:13:40;;;;;;;19.25;6.97;;;;;;;;;;6179874;23;20176;-93
2021/09/02 00:16:46;;;;;;;16.40;7.60;;;;;;;;;;6178849;23;20203;-91
2021/09/02 00:19:52;;;;;;;15.52;7.40;;;;;;;;;;6180533;23;20264;-89
2021/09/02 00:22:57;;;;;;;18.58;7.05;;;;;;;;;;6182901;23;20250;-92
2021/09/02 00:26:02;;;;;;;15.02;7.28;;;;;;;;;;6182098;23;20164;-91
2021/09/02 00:29:07;;;;;;;14.40;6.97;;;;;;;;;;6182437;23;20156;-88
2021/09/02 00:32:13;;;;;;;15.50;7.13;;;;;;;;;;6183439;23;20159;-89
2021/09/02 00:35:20;;;;;;;20.70;7.57;;;;;;;;;;6183469;23;20156;-91
2021/09/02 00:38:25;;;;;;;34.63;8.07;;;;;;;;;;6183821;23;20168;-92
2021/09/02 00:41:30;;;;;;;15.63;6.90;;;;;;;;;;6183833;23;20259;-92
2021/09/02 00:44:39;;;;;;;18.52;8.60;;;;;;;;;;6183760;23;20284;-89
2021/09/02 00:47:45;;;;;;;17.00;8.45;;;;;;;;;;6182312;23;20243;-91
2021/09/02 00:50:51;;;;;;;15.10;7.68;;;;;;;;;;6182242;23;20175;-90
2021/09/02 00:53:57;;;;;;;13.82;7.45;;;;;;;;;;6182645;23;20240;-90
2021/09/02 00:57:03;;;;;;;14.85;7.78;;;;;;;;;;6182636;23;20176;-90
2021/09/02 01:00:10;;;;;;;15.02;6.97;;;;;;;;;;6180860;23;20194;-90
2021/09/02 01:03:18;;;;;;;16.00;6.72;;;;;;;;;;6182006;23;20199;-90
2021/09/02 01:06:24;;;;;;;18.00;7.18;;;;;;;;;;6181577;23;20175;-89
2021/09/02 01:09:30;;;;;;;16.40;7.50;;;;;;;;;;6181231;23;20167;-90
2021/09/02 01:12:37;;;;;;;19.55;7.22;;;;;;;;;;6183062;23;20152;-90
2021/09/02 01:15:41;;;;;;;12.23;6.80;;;;;;;;;;6182312;23;20176;-90
2021/09/02 01:18:47;;;;;;;13.45;6.70;;;;;;;;;;6183338;23;20236;-91
2021/09/02 01:21:53;;;;;;;13.40;6.30;;;;;;;;;;6183349;23;20172;-90
2021/09/02 01:25:00;;;;;;;18.15;6.68;;;;;;;;;;6182789;23;20175;-92
2021/09/02 01:28:06;;;;;;;24.77;6.25;;;;;;;;;;6182628;23;20175;-89
2021/09/02 01:31:12;;;;;;;11.77;6.47;;;;;;;;;;6183127;23;20175;-91
2021/09/02 01:34:18;;;;;;;16.83;7.25;;;;;;;;;;6184384;23;20175;-91
2021/09/02 01:37:23;;;;;;;16.80;8.02;;;;;;;;;;6182736;23;20286;-91
2021/09/02 01:40:31;;;;;;;15.38;7.85;;;;;;;;;;6183072;23;20251;-92
2021/09/02 01:43:36;;;;;;;15.13;7.18;;;;;;;;;;6181370;23;20196;-89
2021/09/02 01:46:41;;;;;;;15.40;7.38;;;;;;;;;;6181238;23;20172;-92
2021/09/02 01:49:46;;;;;;;15.13;7.25;;;;;;;;;;6181537;23;20184;-90
2021/09/02 01:52:52;;;;;;;14.68;7.07;;;;;;;;;;6183409;23;20256;-92
2021/09/02 01:56:00;;;;;;;12.98;6.57;;;;;;;;;;6183084;23;20188;-91
2021/09/02 01:59:05;;;;;;;14.68;7.15;;;;;;;;;;6181291;23;20190;-90
2021/09/02 02:02:10;;;;;;;12.73;6.47;;;;;;;;;;6183077;23;20175;-90
2021/09/02 02:05:15;;;;;;;11.13;6.30;;;;;;;;;;6182620;23;20174;-89
2021/09/02 02:08:20;;;;;;;12.85;5.53;;;;;;;;;;6181434;23;20221;-91
2021/09/02 02:11:27;;;;;;;17.95;6.82;;;;;;;;;;6179812;23;20502;-92
2021/09/02 02:14:32;;;;;;;18.05;7.03;;;;;;;;;;6182118;23;20180;-91
2021/09/02 02:17:37;;;;;;;14.57;6.93;;;;;;;;;;6179732;23;20171;-92
2021/09/02 02:20:42;;;;;;;20.00;7.30;;;;;;;;;;6179058;23;20306;-91
2021/09/02 02:23:47;;;;;;;16.77;7.20;;;;;;;;;;6179633;23;20176;-93
2021/09/02 02:26:54;;;;;;;16.13;7.35;;;;;;;;;;6178930;23;20284;-91
2021/09/02 02:29:59;;;;;;;13.82;6.70;;;;;;;;;;6179196;23;20172;-91
2021/09/02 02:33:04;;;;;;;15.80;7.00;;;;;;;;;;6180046;23;20357;-89
2021/09/02 02:36:09;;;;;;;11.63;6.22;;;;;;;;;;6180053;23;20195;-92
2021/09/02 02:39:14;;;;;;;12.95;6.82;;;;;;;;;;6178807;23;20897;-90
2021/09/02 02:42:21;;;;;;;20.75;6.45;;;;;;;;;;6179317;23;20250;-90
2021/09/02 02:45:26;;;;;;;15.25;7.13;;;;;;;;;;6180407;23;20151;-91
2021/09/02 02:48:31;;;;;;;16.88;6.95;;;;;;;;;;6180867;23;20171;-89
2021/09/02 02:51:36;;;;;;;14.77;6.78;;;;;;;;;;6181358;23;20415;-90
2021/09/02 02:54:41;;;;;;;15.45;7.20;;;;;;;;;;6178958;23;20171;-89
2021/09/02 02:57:48;;;;;;;31.67;7.57;;;;;;;;;;6178776;23;20215;-90
2021/09/02 03:00:53;;;;;;;17.38;7.35;;;;;;;;;;6179482;23;20210;-92
2021/09/02 03:03:58;;;;;;;13.55;7.03;;;;;;;;;;6178634;23;20171;-89
2021/09/02 03:07:03;;;;;;;11.93;6.20;;;;;;;;;;6180816;23;20175;-90
2021/09/02 03:10:09;;;;;;;16.48;6.63;;;;;;;;;;6182247;23;20168;-91
2021/09/02 03:13:16;;;;;;;15.50;7.53;;;;;;;;;;6180573;23;20148;-89
2021/09/02 03:16:21;;;;;;;13.23;7.40;;;;;;;;;;6181995;23;20163;-90
2021/09/02 03:19:27;;;;;;;25.23;7.20;;;;;;;;;;6182921;23;20248;-89
2021/09/02 03:22:32;;;;;;;46.22;8.20;;;;;;;;;;6182037;23;20168;-90
2021/09/02 03:25:37;;;;;;;17.67;7.78;;;;;;;;;;6180650;23;20211;-92
2021/09/02 03:28:44;;;;;;;14.73;7.57;;;;;;;;;;6181705;23;20245;-92
2021/09/02 03:31:49;;;;;;;13.43;7.55;;;;;;;;;;6180260;23;20320;-91
2021/09/02 03:34:54;;;;;;;17.73;8.45;;;;;;;;;;6178919;23;20172;-90
2021/09/02 03:37:58;;;;;;;13.73;7.82;;;;;;;;;;6179434;23;20156;-90
2021/09/02 03:41:03;;;;;;;17.73;8.07;;;;;;;;;;6180850;23;20190;-91
2021/09/02 03:44:10;;;;;;;15.60;8.40;;;;;;;;;;6178857;23;20171;-88
2021/09/02 03:47:15;;;;;;;15.50;8.07;;;;;;;;;;6180548;23;20147;-91
2021/09/02 03:50:21;;;;;;;14.90;7.15;;;;;;;;;;6180788;23;20168;-91
2021/09/02 03:53:26;;;;;;;17.67;7.47;;;;;;;;;;6181338;23;20228;-94
2021/09/02 03:56:31;;;;;;;12.32;7.22;;;;;;;;;;6182064;23;20153;-92
2021/09/02 03:59:37;;;;;;;15.55;8.02;;;;;;;;;;6181217;23;20207;-91
2021/09/02 04:02:50;;;;;;;15.73;7.38;;;;;;;;;;6167905;23;20192;-92
2021/09/02 04:10:10;;;;;;;14.40;7.78;;;;;;;;;;6168068;23;20156;-90
2021/09/02 04:13:15;;;;;;;12.65;7.25;;;;;;;;;;6166129;23;20241;-91
2021/09/02 04:16:22;;;;;;;12.73;7.57;;;;;;;;;;6165901;23;20160;-91
2021/09/02 04:19:27;;;;;;;13.68;7.18;;;;;;;;;;6167384;23;20631;-90
2021/09/02 04:22:32;;;;;;;13.18;7.20;;;;;;;;;;6166399;23;20220;-92
2021/09/02 04:25:38;;;;;;;16.27;7.80;;;;;;;;;;6166024;23;20161;-89
2021/09/02 04:28:43;;;;;;;40.40;9.50;;;;;;;;;;6169161;23;20189;-92
2021/09/02 04:31:50;;;;;;;18.83;8.52;;;;;;;;;;6168582;23;20173;-90
2021/09/02 04:34:55;;;;;;;39.45;13.10;;;;;;;;;;6168861;23;20800;-92
2021/09/02 04:38:01;;;;;;;18.27;8.25;;;;;;;;;;6168984;23;20173;-91
2021/09/02 04:41:08;;;;;;;24.95;8.25;;;;;;;;;;6167051;23;20192;-91
2021/09/02 04:44:13;;;;;;;15.68;8.93;;;;;;;;;;6168541;23;20168;-93
2021/09/02 04:47:22;;;;;;;14.93;8.10;;;;;;;;;;6168651;23;20168;-91
2021/09/02 04:50:27;;;;;;;27.48;8.10;;;;;;;;;;6167597;23;20148;-91
2021/09/02 04:53:32;;;;;;;18.75;7.75;;;;;;;;;;6166487;23;20168;-91
2021/09/02 04:56:38;;;;;;;14.10;7.38;;;;;;;;;;6167134;23;20168;-91
2021/09/02 04:59:43;;;;;;;16.23;8.45;;;;;;;;;;6169381;23;20195;-91
2021/09/02 05:02:50;;;;;;;14.02;7.15;;;;;;;;;;6169687;23;20256;-90
2021/09/02 05:05:55;;;;;;;11.40;6.80;;;;;;;;;;6170638;23;20172;-91
2021/09/02 05:09:00;;;;;;;12.20;6.88;;;;;;;;;;6172025;23;20169;-93
2021/09/02 05:12:06;;;;;;;13.68;6.43;;;;;;;;;;6173101;23;20180;-90
2021/09/02 05:15:11;;;;;;;12.88;6.70;;;;;;;;;;6169122;23;20172;-91
2021/09/02 05:18:18;;;;;;;11.73;6.15;;;;;;;;;;6168824;23;20197;-90
2021/09/02 05:21:24;;;;;;;11.35;6.63;;;;;;;;;;6170083;23;20197;-90
2021/09/02 05:24:29;;;;;;;11.45;5.95;;;;;;;;;;6168341;23;20181;-90
2021/09/02 06:02:47;;;;;;;14.75;7.15;;;;;;;;;;6182970;23;20304;-90
2021/09/02 06:05:53;;;;;;;14.00;7.53;;;;;;;;;;6179530;23;20171;-90
2021/09/02 06:08:57;;;;;;;13.07;7.03;;;;;;;;;;6183197;23;20216;-89
2021/09/02 06:12:03;;;;;;;18.13;7.00;;;;;;;;;;6186430;23;20176;-91
2021/09/02 06:15:09;;;;;;;12.47;7.20;;;;;;;;;;6181426;23;20402;-92
2021/09/02 06:18:19;;;;;;;17.70;7.47;;;;;;;;;;6184518;23;20152;-89
2021/09/02 06:21:28;;;;;;;13.18;7.68;;;;;;;;;;6184027;23;20203;-91
2021/09/02 06:24:34;;;;;;;15.80;8.23;;;;;;;;;;6181780;23;20148;-89
2021/09/02 06:27:40;;;;;;;13.55;7.78;;;;;;;;;;6186488;23;20168;-90
2021/09/02 06:30:45;;;;;;;16.65;7.53;;;;;;;;;;6185868;23;20172;-90
2021/09/02 06:33:53;;;;;;;13.68;7.63;;;;;;;;;;6184229;23;20175;-90
2021/09/02 06:36:58;;;;;;;12.27;7.47;;;;;;;;;;6186293;23;20619;-90
2021/09/02 06:40:04;;;;;;;14.27;7.28;;;;;;;;;;6182540;23;20274;-91
2021/09/02 06:43:09;;;;;;;13.65;7.45;;;;;;;;;;6183648;23;20277;-90
2021/09/02 06:46:14;;;;;;;14.27;7.25;;;;;;;;;;6182770;23;20172;-91
2021/09/02 06:49:24;;;;;;;13.07;7.53;;;;;;;;;;6180973;23;20172;-89
2021/09/02 06:52:29;;;;;;;14.82;7.30;;;;;;;;;;6185543;23;20232;-93
2021/09/02 06:55:35;;;;;;;12.82;7.32;;;;;;;;;;6185368;23;20775;-90
2021/09/02 06:58:42;;;;;;;14.25;7.55;;;;;;;;;;6188271;23;20188;-90
2021/09/02 07:01:48;;;;;;;13.70;7.18;;;;;;;;;;6185416;23;20284;-91
2021/09/02 07:04:55;;;;;;;13.15;7.13;;;;;;;;;;6184535;23;20192;-91
2021/09/02 07:08:00;;;;;;;18.95;7.38;;;;;;;;;;6183722;23;20172;-91
2021/09/02 07:11:07;;;;;;;13.85;7.38;;;;;;;;;;6185975;23;20176;-91
2021/09/02 07:14:12;;;;;;;13.50;7.30;;;;;;;;;;6184392;23;20207;-93
2021/09/02 07:17:18;;;;;;;17.95;7.40;;;;;;;;;;6183785;23;20167;-92
2021/09/02 07:20:25;;;;;;;12.02;6.47;;;;;;;;;;6184189;23;20178;-91
2021/09/02 07:23:31;;;;;;;10.70;6.45;;;;;;;;;;6185652;23;20159;-94
2021/09/02 07:26:36;;;;;;;10.70;6.35;;;;;;;;;;6186914;23;20216;-92
2021/09/02 07:29:41;;;;;;;10.65;6.15;;;;;;;;;;6184621;23;20196;-92
2021/09/02 07:36:17;;;;;;;12.90;6.30;;;;;;;;;;6190115;23;20180;-91
2021/09/02 07:39:26;;;;;;;12.35;6.05;;;;;;;;;;6187276;23;20226;-90
2021/09/02 07:42:32;;;;;;;12.38;5.70;;;;;;;;;;6184648;23;20168;-92
2021/09/02 07:45:37;;;;;;;7.75;5.63;;;;;;;;;;6186571;23;20198;-92
2021/09/02 07:48:45;;;;;;;9.73;5.68;;;;;;;;;;6185452;23;20191;-90
2021/09/02 07:51:53;;;;;;;11.00;6.13;;;;;;;;;;6184798;23;20235;-90
2021/09/02 07:54:58;;;;;;;9.02;5.63;;;;;;;;;;6184523;23;20163;-92
2021/09/02 07:58:04;;;;;;;9.45;5.35;;;;;;;;;;6183980;23;20171;-93
2021/09/02 08:01:12;;;;;;;9.02;5.90;;;;;;;;;;6185162;23;20175;-93
2021/09/02 08:07:46;;;;;;;9.85;5.30;;;;;;;;;;6186115;23;20168;-91
2021/09/02 08:10:51;;;;;;;7.95;5.13;;;;;;;;;;6184663;23;20167;-92
2021/09/02 08:13:57;;;;;;;9.57;5.78;;;;;;;;;;6186259;23;20163;-93
2021/09/02 08:17:06;;;;;;;12.70;7.15;;;;;;;;;;6185265;23;20175;-92
2021/09/02 08:20:15;;;;;;;11.98;7.53;;;;;;;;;;6187098;23;20172;-92
2021/09/02 08:23:23;;;;;;;13.90;7.47;;;;;;;;;;6185144;23;20164;-92
2021/09/02 08:26:28;;;;;;;11.07;6.50;;;;;;;;;;6184208;23;20211;-92
2021/09/02 08:29:35;;;;;;;10.80;6.43;;;;;;;;;;6183477;23;20168;-93
2021/09/02 08:36:05;;;;;;;8.90;5.82;;;;;;;;;;6181828;23;20646;-91
2021/09/02 08:42:34;;;;;;;9.90;5.88;;;;;;;;;;6206732;23;20195;-92
2021/09/02 08:45:40;;;;;;;13.57;6.70;;;;;;;;;;6190522;23;20171;-95
2021/09/02 08:48:48;;;;;;;13.93;6.45;;;;;;;;;;6189463;23;20166;-94
2021/09/02 17:04:58;;;;;;;8.93;4.45;;;;;;;;;;6192369;23;20220;-93
2021/09/02 17:08:03;;;;;;;6.57;3.85;;;;;;;;;;6183136;23;20197;-90
2021/09/02 17:11:09;;;;;;;7.07;4.30;;;;;;;;;;6183644;23;20167;-90
2021/09/02 17:14:14;;;;;;;8.82;4.75;;;;;;;;;;6182937;23;20172;-90
2021/09/02 17:17:19;;;;;;;9.32;4.78;;;;;;;;;;6188097;23;20192;-92
2021/09/02 17:20:26;;;;;;;9.40;4.60;;;;;;;;;;6184425;23;20184;-91
2021/09/02 17:23:32;;;;;;;5.90;3.63;;;;;;;;;;6184704;23;20171;-92
2021/09/02 17:26:38;;;;;;;6.93;3.67;;;;;;;;;;6185512;23;20172;-91
2021/09/02 17:29:43;;;;;;;7.38;3.88;;;;;;;;;;6185920;23;20232;-92
2021/09/02 17:36:15;;;;;;;13.13;7.55;;;;;;;;;;6182527;23;20217;-91
2021/09/02 17:39:20;;;;;;;8.57;5.68;;;;;;;;;;6184517;23;20175;-90
2021/09/02 17:42:25;;;;;;;13.75;5.28;;;;;;;;;;6183442;23;20191;-92
2021/09/02 17:45:30;;;;;;;9.73;4.13;;;;;;;;;;6184896;23;20155;-91
2021/09/02 17:48:36;;;;;;;7.65;4.18;;;;;;;;;;6183142;23;20163;-91
2021/09/02 17:51:43;;;;;;;11.95;4.53;;;;;;;;;;6182223;23;20214;-91
2021/09/02 17:54:48;;;;;;;7.13;4.05;;;;;;;;;;6180400;23;20176;-90
2021/09/02 17:57:53;;;;;;;8.52;4.18;;;;;;;;;;6183817;23;20223;-92
2021/09/02 18:00:59;;;;;;;7.57;4.18;;;;;;;;;;6181944;23;20163;-92
2021/09/02 18:04:04;;;;;;;9.63;4.40;;;;;;;;;;6171519;23;20192;-91
2021/09/02 18:07:10;;;;;;;10.73;4.97;;;;;;;;;;6173495;23;20164;-93
2021/09/02 18:10:24;;;;;;;10.10;5.65;;;;;;;;;;6171646;23;20552;-91
2021/09/02 18:13:30;;;;;;;14.18;7.65;;;;;;;;;;6172545;23;20181;-93
2021/09/02 18:16:35;;;;;;;15.80;7.45;;;;;;;;;;6173787;23;20171;-93
2021/09/02 18:19:41;;;;;;;12.98;5.95;;;;;;;;;;6172779;23;20176;-92
2021/09/02 18:22:48;;;;;;;10.02;5.45;;;;;;;;;;6173375;23;20208;-93
2021/09/02 18:25:53;;;;;;;15.77;6.60;;;;;;;;;;6172518;23;20173;-90
2021/09/02 18:29:01;;;;;;;11.18;6.53;;;;;;;;;;6171694;23;20204;-93
2021/09/02 18:32:07;;;;;;;15.32;6.10;;;;;;;;;;6172591;23;20172;-93
2021/09/02 18:35:13;;;;;;;11.32;5.20;;;;;;;;;;6170880;23;20173;-93
2021/09/02 18:38:20;;;;;;;12.68;5.45;;;;;;;;;;6175954;23;20221;-93
2021/09/02 18:41:28;;;;;;;16.33;6.85;;;;;;;;;;6177232;23;20264;-89
2021/09/02 18:44:35;;;;;;;13.45;6.30;;;;;;;;;;6174548;23;20192;-92
2021/09/02 18:47:41;;;;;;;15.77;5.95;;;;;;;;;;6174515;23;20145;-90
2021/09/02 18:50:51;;;;;;;12.00;6.00;;;;;;;;;;6175308;23;20180;-91
2021/09/02 18:53:59;;;;;;;10.07;5.65;;;;;;;;;;6178154;23;20228;-90
2021/09/02 18:57:06;;;;;;;13.15;5.97;;;;;;;;;;6177098;23;20193;-92
2021/09/02 19:00:14;;;;;;;10.70;5.22;;;;;;;;;;6176133;23;20157;-92
2021/09/02 19:03:20;;;;;;;11.05;5.68;;;;;;;;;;6180314;23;20274;-90
2021/09/02 19:06:40;;;;;;;24.17;7.68;;;;;;;;;;6185089;23;20171;-92
2021/09/02 19:09:49;;;;;;;14.68;6.90;;;;;;;;;;6182814;23;20555;-90
2021/09/02 19:13:01;;;;;;;14.25;6.43;;;;;;;;;;6182063;23;20227;-90
2021/09/02 19:16:07;;;;;;;12.88;6.20;;;;;;;;;;6202055;23;20172;-92
2021/09/02 19:19:13;;;;;;;12.80;6.45;;;;;;;;;;6185334;23;20168;-91
2021/09/02 19:22:18;;;;;;;21.58;6.82;;;;;;;;;;6181536;23;20523;-93
2021/09/02 19:25:28;;;;;;;14.20;6.75;;;;;;;;;;6184185;23;20172;-92
2021/09/02 19:28:34;;;;;;;14.48;5.45;;;;;;;;;;6183539;23;20244;-91
2021/09/02 19:31:43;;;;;;;11.38;5.80;;;;;;;;;;6183726;23;20168;-91
2021/09/02 19:34:49;;;;;;;10.75;5.78;;;;;;;;;;6182654;23;20159;-90
2021/09/02 19:37:55;;;;;;;11.00;5.45;;;;;;;;;;6183917;23;20167;-91
2021/09/02 19:41:02;;;;;;;12.30;5.65;;;;;;;;;;6182554;23;20171;-90
2021/09/02 19:44:09;;;;;;;16.02;6.03;;;;;;;;;;6181758;23;20490;-91
2021/09/02 19:47:14;;;;;;;19.83;6.00;;;;;;;;;;6198869;23;20172;-90
2021/09/02 19:50:23;;;;;;;10.30;5.72;;;;;;;;;;6182158;23;20167;-90
2021/09/02 19:53:30;;;;;;;11.32;5.78;;;;;;;;;;6180321;23;20172;-90
2021/09/02 19:56:56;;;;;;;12.50;6.10;;;;;;;;;;6181846;23;20163;-89
2021/09/02 20:00:06;;;;;;;12.88;6.03;;;;;;;;;;6181456;23;20184;-92
2021/09/02 20:03:15;;;;;;;12.97;6.07;;;;;;;;;;6130951;23;1168881;-90
2021/09/02 20:06:23;;;;;;;13.60;5.82;;;;;;;;;;6181630;23;20168;-90
2021/09/02 20:09:29;;;;;;;12.98;6.32;;;;;;;;;;6185698;23;20239;-93
2021/09/02 20:12:37;;;;;;;13.65;6.57;;;;;;;;;;6188136;23;20219;-90
2021/09/02 20:15:45;;;;;;;15.07;6.05;;;;;;;;;;6186693;23;20223;-94
2021/09/02 20:18:51;;;;;;;17.92;7.07;;;;;;;;;;6186362;23;20172;-93
2021/09/02 20:21:59;;;;;;;14.30;6.60;;;;;;;;;;6185711;23;20268;-92
2021/09/02 20:25:31;;;;;;;13.85;6.47;;;;;;;;;;6189088;23;20172;-92
2021/09/02 20:28:36;;;;;;;13.05;6.43;;;;;;;;;;6190569;23;20155;-91
2021/09/02 20:31:45;;;;;;;13.90;6.43;;;;;;;;;;6204734;23;20184;-90
2021/09/02 20:34:52;;;;;;;14.82;7.25;;;;;;;;;;6187109;23;20211;-92
2021/09/02 20:38:09;;;;;;;11.70;6.88;;;;;;;;;;6188310;23;20233;-92
2021/09/02 20:41:17;;;;;;;11.40;6.13;;;;;;;;;;6189622;23;20164;-91
2021/09/02 20:44:38;;;;;;;18.13;6.38;;;;;;;;;;6188355;23;20232;-92
2021/09/02 20:47:51;;;;;;;11.63;6.88;;;;;;;;;;6188358;23;20172;-91
2021/09/02 20:50:57;;;;;;;12.30;6.65;;;;;;;;;;6190470;23;20554;-91
2021/09/02 20:54:03;;;;;;;16.55;6.78;;;;;;;;;;6188329;23;20176;-92
2021/09/02 20:57:10;;;;;;;16.92;6.80;;;;;;;;;;6188091;23;20172;-92
2021/09/02 21:00:16;;;;;;;15.70;8.40;;;;;;;;;;6185927;23;20176;-89
2021/09/02 21:03:25;;;;;;;12.02;5.95;;;;;;;;;;6185223;23;20211;-89
2021/09/02 21:06:30;;;;;;;11.00;5.93;;;;;;;;;;6187227;23;20185;-89
2021/09/02 21:09:36;;;;;;;14.20;5.75;;;;;;;;;;6185934;23;20483;-93
2021/09/02 21:12:42;;;;;;;9.73;5.57;;;;;;;;;;6186822;23;20615;-90
2021/09/02 21:15:48;;;;;;;15.02;6.25;;;;;;;;;;6185237;23;20171;-92
2021/09/02 21:18:55;;;;;;;18.83;6.38;;;;;;;;;;6187027;23;20160;-91
2021/09/02 21:22:04;;;;;;;11.73;6.03;;;;;;;;;;6186824;23;20346;-91
2021/09/02 21:25:13;;;;;;;9.70;5.70;;;;;;;;;;6186500;23;20167;-93
2021/09/02 21:28:24;;;;;;;16.67;6.47;;;;;;;;;;6187688;23;20172;-92
2021/09/02 21:31:34;;;;;;;12.82;5.72;;;;;;;;;;6185974;23;20167;-91
2021/09/02 21:34:46;;;;;;;16.88;6.38;;;;;;;;;;6186518;23;20212;-90
2021/09/02 21:37:53;;;;;;;13.25;6.13;;;;;;;;;;6186404;23;20229;-92
2021/09/02 21:41:02;;;;;;;14.95;6.90;;;;;;;;;;6186178;23;20309;-92
2021/09/02 21:44:13;;;;;;;14.68;6.53;;;;;;;;;;6186358;23;20291;-91
2021/09/02 21:47:22;;;;;;;15.48;6.93;;;;;;;;;;6187202;23;20169;-89
2021/09/02 21:50:30;;;;;;;16.38;5.85;;;;;;;;;;6186807;23;20200;-92
2021/09/02 21:53:36;;;;;;;22.52;6.72;;;;;;;;;;6187540;23;20168;-90
2021/09/02 21:56:42;;;;;;;12.73;6.25;;;;;;;;;;6189008;23;20172;-90
2021/09/02 21:59:51;;;;;;;12.32;6.07;;;;;;;;;;6189365;23;20163;-92
2021/09/02 22:03:11;;;;;;;11.00;6.13;;;;;;;;;;6190290;23;20192;-91
2021/09/02 22:06:20;;;;;;;12.88;6.22;;;;;;;;;;6188756;23;20229;-91
2021/09/02 22:09:26;;;;;;;11.10;6.07;;;;;;;;;;6189167;23;20168;-91
2021/09/02 22:12:34;;;;;;;12.10;6.25;;;;;;;;;;6188480;23;20167;-91
2021/09/02 22:15:40;;;;;;;10.80;5.68;;;;;;;;;;6187759;23;20251;-90
2021/09/02 22:18:47;;;;;;;9.27;5.50;;;;;;;;;;6186677;23;20231;-91
2021/09/02 22:21:57;;;;;;;10.65;5.63;;;;;;;;;;6187295;23;20167;-91
2021/09/02 22:25:04;;;;;;;11.88;5.78;;;;;;;;;;6204726;23;20160;-91
2021/09/02 22:28:09;;;;;;;10.90;5.38;;;;;;;;;;6187546;23;20175;-92
2021/09/02 22:31:15;;;;;;;14.68;6.15;;;;;;;;;;6185818;23;20217;-92
2021/09/02 22:34:22;;;;;;;10.88;5.68;;;;;;;;;;6186891;23;20187;-91
2021/09/02 22:37:29;;;;;;;10.18;5.57;;;;;;;;;;6185130;23;20301;-91
2021/09/02 22:40:36;;;;;;;10.60;5.38;;;;;;;;;;6185945;23;20287;-90
2021/09/02 22:43:43;;;;;;;13.10;5.68;;;;;;;;;;6186650;23;20188;-91
2021/09/02 22:46:49;;;;;;;12.55;5.60;;;;;;;;;;6186020;23;20167;-93
2021/09/02 22:49:59;;;;;;;12.27;5.60;;;;;;;;;;6187788;23;20167;-92
2021/09/02 22:53:09;;;;;;;9.38;5.47;;;;;;;;;;6190821;23;20176;-91
2021/09/02 22:56:16;;;;;;;15.15;5.35;;;;;;;;;;6189408;23;20171;-90
2021/09/02 22:59:23;;;;;;;12.25;5.50;;;;;;;;;;6187871;23;20160;-93
2021/09/02 23:02:29;;;;;;;13.05;5.70;;;;;;;;;;6183960;23;20243;-92
2021/09/02 23:05:35;;;;;;;12.35;5.43;;;;;;;;;;6173936;23;20192;-92
2021/09/02 23:08:47;;;;;;;14.07;6.32;;;;;;;;;;6172865;23;20164;-92
2021/09/02 23:11:56;;;;;;;11.05;5.78;;;;;;;;;;6173538;23;20169;-90
2021/09/02 23:15:05;;;;;;;11.68;5.53;;;;;;;;;;6173769;23;20184;-92
2021/09/02 23:18:11;;;;;;;12.60;5.47;;;;;;;;;;6173428;23;20209;-90
2021/09/02 23:21:18;;;;;;;11.68;6.15;;;;;;;;;;6173169;23;20503;-91
2021/09/02 23:24:25;;;;;;;12.50;5.88;;;;;;;;;;6171707;23;20247;-91
2021/09/02 23:27:33;;;;;;;15.00;6.03;;;;;;;;;;6171912;23;20156;-88
2021/09/02 23:30:38;;;;;;;9.95;5.65;;;;;;;;;;6172749;23;20171;-88
2021/09/02 23:33:44;;;;;;;14.52;6.82;;;;;;;;;;6171875;23;20168;-91
2021/09/02 23:36:50;;;;;;;12.88;5.45;;;;;;;;;;6171904;23;20281;-92
2021/09/02 23:40:00;;;;;;;9.63;5.13;;;;;;;;;;6172556;23;20188;-92
2021/09/02 23:43:06;;;;;;;10.95;5.32;;;;;;;;;;6171983;23;20507;-91
2021/09/02 23:46:13;;;;;;;13.60;5.78;;;;;;;;;;6173181;23;20152;-90
2021/09/02 23:49:19;;;;;;;11.85;5.85;;;;;;;;;;6171910;23;20156;-91
2021/09/02 23:52:25;;;;;;;11.65;5.20;;;;;;;;;;6173997;23;20168;-91
2021/09/02 23:55:32;;;;;;;9.63;5.60;;;;;;;;;;6173590;23;20228;-92
2021/09/02 23:58:37;;;;;;;10.50;5.80;;;;;;;;;;6173014;23;20157;-91
